Terminal Aerodrome Forecast
Issued by NWS

Home | Current Version | Previous Version | Graphics & Text | Print | Product List | Glossary On
Versions: 1 2 3 4 5 6 7 8 9 10 11 12 13 14 15 16
000
FTUS43 KMPX 271720
TAFRWF
TAF
KRWF 271720Z 2718/2818 16008KT P6SM VCSH SCT050 OVC080
     FM272100 34005KT P6SM VCSH BKN050 OVC100
     FM280700 36005KT 5SM -SHRA BR SCT015 OVC030
     FM281400 34005KT P6SM OVC025=

USA.gov is the U.S. government's official web portal to all federal, state and local government web resources and services.